sensor_id;sensor_type;location;lat;lon;timestamp;pressure;altitude;pressure_sealevel;temperature;humidity
41467;BME280;72625;53.700;19.958;2023-12-29T00:02:11;99487.88;;;6.66;97.07
41467;BME280;72625;53.700;19.958;2023-12-29T00:07:15;99484.52;;;6.67;97.06
41467;BME280;72625;53.700;19.958;2023-12-29T00:12:22;99481.52;;;6.68;96.53
41467;BME280;72625;53.700;19.958;2023-12-29T00:17:25;99469.23;;;6.70;96.87
41467;BME280;72625;53.700;19.958;2023-12-29T00:22:29;99459.76;;;6.71;96.53
41467;BME280;72625;53.700;19.958;2023-12-29T00:27:32;99454.12;;;6.72;96.30
41467;BME280;72625;53.700;19.958;2023-12-29T00:32:35;99453.10;;;6.71;96.37
41467;BME280;72625;53.700;19.958;2023-12-29T00:37:38;99448.45;;;6.72;96.63
41467;BME280;72625;53.700;19.958;2023-12-29T00:42:42;99443.02;;;6.71;96.08
41467;BME280;72625;53.700;19.958;2023-12-29T00:47:45;99438.88;;;6.69;96.35
41467;BME280;72625;53.700;19.958;2023-12-29T00:52:49;99430.71;;;6.68;96.44
41467;BME280;72625;53.700;19.958;2023-12-29T00:57:52;99426.82;;;6.59;96.24
41467;BME280;72625;53.700;19.958;2023-12-29T01:02:56;99420.27;;;6.49;96.47
41467;BME280;72625;53.700;19.958;2023-12-29T01:08:00;99412.54;;;6.41;96.24
41467;BME280;72625;53.700;19.958;2023-12-29T01:13:04;99406.98;;;6.33;96.48
41467;BME280;72625;53.700;19.958;2023-12-29T01:18:09;99398.88;;;6.22;96.53
41467;BME280;72625;53.700;19.958;2023-12-29T01:23:13;99386.02;;;6.14;96.65
41467;BME280;72625;53.700;19.958;2023-12-29T01:28:16;99380.81;;;6.08;96.93
41467;BME280;72625;53.700;19.958;2023-12-29T01:33:19;99371.52;;;6.02;96.99
41467;BME280;72625;53.700;19.958;2023-12-29T01:38:24;99373.13;;;5.97;97.20
41467;BME280;72625;53.700;19.958;2023-12-29T01:43:28;99371.02;;;5.91;97.30
41467;BME280;72625;53.700;19.958;2023-12-29T01:48:31;99367.48;;;5.88;97.47
41467;BME280;72625;53.700;19.958;2023-12-29T01:53:34;99371.73;;;5.85;97.56
41467;BME280;72625;53.700;19.958;2023-12-29T01:58:51;99370.44;;;5.82;97.88
41467;BME280;72625;53.700;19.958;2023-12-29T02:03:54;99364.63;;;5.78;97.81
41467;BME280;72625;53.700;19.958;2023-12-29T02:08:58;99360.25;;;5.74;97.97
41467;BME280;72625;53.700;19.958;2023-12-29T02:14:02;99361.04;;;5.72;98.06
41467;BME280;72625;53.700;19.958;2023-12-29T02:19:24;99345.95;;;5.70;98.12
41467;BME280;72625;53.700;19.958;2023-12-29T02:24:28;99344.00;;;5.72;98.22
41467;BME280;72625;53.700;19.958;2023-12-29T02:29:32;99324.29;;;5.75;98.28
41467;BME280;72625;53.700;19.958;2023-12-29T02:34:36;99324.26;;;5.80;98.15
41467;BME280;72625;53.700;19.958;2023-12-29T02:39:41;99319.36;;;5.85;97.96
41467;BME280;72625;53.700;19.958;2023-12-29T02:44:45;99316.93;;;5.86;97.98
41467;BME280;72625;53.700;19.958;2023-12-29T02:49:48;99311.21;;;5.87;97.98
41467;BME280;72625;53.700;19.958;2023-12-29T02:54:53;99302.19;;;5.91;97.73
41467;BME280;72625;53.700;19.958;2023-12-29T02:59:57;99296.84;;;5.92;97.72
41467;BME280;72625;53.700;19.958;2023-12-29T03:05:00;99289.95;;;5.94;97.51
41467;BME280;72625;53.700;19.958;2023-12-29T03:10:04;99287.77;;;5.97;97.44
41467;BME280;72625;53.700;19.958;2023-12-29T03:15:07;99288.65;;;6.01;97.50
41467;BME280;72625;53.700;19.958;2023-12-29T03:20:11;99283.70;;;6.05;97.27
41467;BME280;72625;53.700;19.958;2023-12-29T03:25:15;99279.39;;;6.05;97.15
41467;BME280;72625;53.700;19.958;2023-12-29T03:30:19;99282.09;;;6.04;96.83
41467;BME280;72625;53.700;19.958;2023-12-29T03:35:22;99284.60;;;5.96;96.51
41467;BME280;72625;53.700;19.958;2023-12-29T03:40:26;99276.91;;;5.90;96.85
41467;BME280;72625;53.700;19.958;2023-12-29T03:45:29;99274.63;;;5.87;97.00
41467;BME280;72625;53.700;19.958;2023-12-29T03:50:33;99277.02;;;5.87;96.79
41467;BME280;72625;53.700;19.958;2023-12-29T03:55:36;99281.41;;;5.89;96.79
41467;BME280;72625;53.700;19.958;2023-12-29T04:00:40;99277.38;;;5.90;96.87
41467;BME280;72625;53.700;19.958;2023-12-29T04:05:45;99271.55;;;5.91;97.02
41467;BME280;72625;53.700;19.958;2023-12-29T04:10:48;99265.25;;;5.91;97.06
41467;BME280;72625;53.700;19.958;2023-12-29T04:15:51;99261.80;;;5.88;97.08
41467;BME280;72625;53.700;19.958;2023-12-29T04:20:55;99259.17;;;5.83;97.37
41467;BME280;72625;53.700;19.958;2023-12-29T04:25:58;99253.25;;;5.79;97.19
41467;BME280;72625;53.700;19.958;2023-12-29T04:31:02;99242.30;;;5.76;97.22
41467;BME280;72625;53.700;19.958;2023-12-29T04:36:07;99237.24;;;5.72;97.23
41467;BME280;72625;53.700;19.958;2023-12-29T04:41:13;99238.09;;;5.68;97.34
41467;BME280;72625;53.700;19.958;2023-12-29T04:46:16;99236.98;;;5.59;97.26
41467;BME280;72625;53.700;19.958;2023-12-29T04:51:20;99235.84;;;5.49;97.49
41467;BME280;72625;53.700;19.958;2023-12-29T04:56:23;99230.90;;;5.38;97.74
41467;BME280;72625;53.700;19.958;2023-12-29T05:01:27;99225.27;;;5.35;97.69
41467;BME280;72625;53.700;19.958;2023-12-29T05:06:31;99217.12;;;5.34;98.02
41467;BME280;72625;53.700;19.958;2023-12-29T05:11:34;99205.58;;;5.36;97.81
41467;BME280;72625;53.700;19.958;2023-12-29T05:16:38;99197.64;;;5.33;97.91
41467;BME280;72625;53.700;19.958;2023-12-29T05:21:41;99185.81;;;5.31;97.98
41467;BME280;72625;53.700;19.958;2023-12-29T05:26:45;99171.76;;;5.29;98.03
41467;BME280;72625;53.700;19.958;2023-12-29T05:31:48;99169.82;;;5.27;98.15
41467;BME280;72625;53.700;19.958;2023-12-29T05:36:52;99169.30;;;5.28;98.26
41467;BME280;72625;53.700;19.958;2023-12-29T05:41:55;99160.75;;;5.31;98.20
41467;BME280;72625;53.700;19.958;2023-12-29T05:46:59;99159.59;;;5.35;98.28
41467;BME280;72625;53.700;19.958;2023-12-29T05:52:02;99153.15;;;5.40;98.39
41467;BME280;72625;53.700;19.958;2023-12-29T05:57:05;99155.09;;;5.43;98.39
41467;BME280;72625;53.700;19.958;2023-12-29T06:02:09;99147.81;;;5.46;98.58
41467;BME280;72625;53.700;19.958;2023-12-29T06:07:12;99144.14;;;5.51;98.52
41467;BME280;72625;53.700;19.958;2023-12-29T06:12:15;99132.42;;;5.55;98.44
41467;BME280;72625;53.700;19.958;2023-12-29T06:17:18;99145.05;;;5.57;98.39
41467;BME280;72625;53.700;19.958;2023-12-29T06:22:22;99146.02;;;5.60;98.18
41467;BME280;72625;53.700;19.958;2023-12-29T06:27:26;99153.80;;;5.63;98.44
41467;BME280;72625;53.700;19.958;2023-12-29T06:32:29;99147.45;;;5.65;98.45
41467;BME280;72625;53.700;19.958;2023-12-29T06:37:33;99144.41;;;5.67;98.06
41467;BME280;72625;53.700;19.958;2023-12-29T06:42:36;99137.46;;;5.69;98.30
41467;BME280;72625;53.700;19.958;2023-12-29T06:47:40;99132.00;;;5.70;98.05
41467;BME280;72625;53.700;19.958;2023-12-29T06:52:43;99137.35;;;5.73;97.59
41467;BME280;72625;53.700;19.958;2023-12-29T06:57:47;99127.67;;;5.77;97.50
41467;BME280;72625;53.700;19.958;2023-12-29T07:02:50;99118.50;;;5.76;97.51
41467;BME280;72625;53.700;19.958;2023-12-29T07:07:54;99124.24;;;5.80;97.35
41467;BME280;72625;53.700;19.958;2023-12-29T07:12:57;99121.77;;;5.78;97.06
41467;BME280;72625;53.700;19.958;2023-12-29T07:18:00;99112.11;;;5.83;97.20
41467;BME280;72625;53.700;19.958;2023-12-29T07:23:04;99116.99;;;5.83;96.81
41467;BME280;72625;53.700;19.958;2023-12-29T07:28:08;99120.41;;;5.87;96.85
41467;BME280;72625;53.700;19.958;2023-12-29T07:33:11;99102.56;;;5.88;96.48
41467;BME280;72625;53.700;19.958;2023-12-29T07:38:15;99096.04;;;5.93;96.81
41467;BME280;72625;53.700;19.958;2023-12-29T07:43:19;99105.88;;;5.96;96.69
41467;BME280;72625;53.700;19.958;2023-12-29T07:48:22;99098.59;;;5.98;96.64
41467;BME280;72625;53.700;19.958;2023-12-29T07:53:26;99090.70;;;6.02;96.51
41467;BME280;72625;53.700;19.958;2023-12-29T07:58:29;99095.45;;;6.07;96.22
41467;BME280;72625;53.700;19.958;2023-12-29T08:03:33;99098.98;;;6.16;96.04
41467;BME280;72625;53.700;19.958;2023-12-29T08:08:36;99089.47;;;6.27;96.26
41467;BME280;72625;53.700;19.958;2023-12-29T08:13:39;99082.77;;;6.33;95.53
41467;BME280;72625;53.700;19.958;2023-12-29T08:18:43;99089.09;;;6.46;95.54
41467;BME280;72625;53.700;19.958;2023-12-29T08:23:47;99105.83;;;6.54;95.18
41467;BME280;72625;53.700;19.958;2023-12-29T08:28:51;99105.99;;;6.63;94.49
41467;BME280;72625;53.700;19.958;2023-12-29T08:33:55;99105.99;;;6.67;94.42
41467;BME280;72625;53.700;19.958;2023-12-29T08:38:58;99098.57;;;6.74;94.72
41467;BME280;72625;53.700;19.958;2023-12-29T08:44:02;99099.83;;;6.83;94.73
41467;BME280;72625;53.700;19.958;2023-12-29T08:49:06;99106.73;;;6.93;94.32
41467;BME280;72625;53.700;19.958;2023-12-29T08:54:11;99105.42;;;6.99;93.62
41467;BME280;72625;53.700;19.958;2023-12-29T08:59:14;99107.70;;;7.01;93.61
41467;BME280;72625;53.700;19.958;2023-12-29T09:04:17;99108.86;;;7.07;93.48
41467;BME280;72625;53.700;19.958;2023-12-29T09:09:22;99099.58;;;7.22;93.09
41467;BME280;72625;53.700;19.958;2023-12-29T09:14:26;99093.92;;;7.30;93.04
41467;BME280;72625;53.700;19.958;2023-12-29T09:19:29;99083.42;;;7.31;93.10
41467;BME280;72625;53.700;19.958;2023-12-29T09:24:42;99071.23;;;7.32;93.87
41467;BME280;72625;53.700;19.958;2023-12-29T09:29:45;99071.80;;;7.22;94.10
41467;BME280;72625;53.700;19.958;2023-12-29T09:34:49;99067.33;;;7.15;94.57
41467;BME280;72625;53.700;19.958;2023-12-29T09:39:52;99066.20;;;7.16;94.72
41467;BME280;72625;53.700;19.958;2023-12-29T09:44:55;99061.54;;;7.23;94.64
41467;BME280;72625;53.700;19.958;2023-12-29T09:49:59;99061.65;;;7.28;94.11
41467;BME280;72625;53.700;19.958;2023-12-29T09:55:03;99067.22;;;7.35;93.95
41467;BME280;72625;53.700;19.958;2023-12-29T10:00:10;99068.45;;;7.37;93.75
41467;BME280;72625;53.700;19.958;2023-12-29T10:05:15;99072.15;;;7.35;92.80
41467;BME280;72625;53.700;19.958;2023-12-29T10:10:18;99068.71;;;7.32;93.00
41467;BME280;72625;53.700;19.958;2023-12-29T10:16:08;99065.16;;;7.29;93.28
41467;BME280;72625;53.700;19.958;2023-12-29T10:21:23;99054.30;;;7.23;94.30
41467;BME280;72625;53.700;19.958;2023-12-29T10:26:29;99042.66;;;7.27;94.59
41467;BME280;72625;53.700;19.958;2023-12-29T10:31:33;99049.39;;;7.25;95.07
41467;BME280;72625;53.700;19.958;2023-12-29T10:36:50;99044.54;;;7.26;95.50
41467;BME280;72625;53.700;19.958;2023-12-29T10:42:13;99041.66;;;7.24;95.76
41467;BME280;72625;53.700;19.958;2023-12-29T10:47:18;99032.86;;;7.32;96.02
41467;BME280;72625;53.700;19.958;2023-12-29T10:52:23;99020.02;;;7.50;95.95
41467;BME280;72625;53.700;19.958;2023-12-29T10:57:26;99014.94;;;7.65;95.30
41467;BME280;72625;53.700;19.958;2023-12-29T11:02:29;99012.81;;;7.72;95.14
41467;BME280;72625;53.700;19.958;2023-12-29T11:07:37;99011.41;;;7.69;95.08
41467;BME280;72625;53.700;19.958;2023-12-29T11:12:41;99015.73;;;7.76;94.57
41467;BME280;72625;53.700;19.958;2023-12-29T11:17:44;99020.70;;;7.87;94.12
41467;BME280;72625;53.700;19.958;2023-12-29T11:22:52;99014.49;;;8.04;93.78
41467;BME280;72625;53.700;19.958;2023-12-29T11:27:57;99013.21;;;8.29;92.88
41467;BME280;72625;53.700;19.958;2023-12-29T11:43:34;99029.98;;;8.70;89.92
41467;BME280;72625;53.700;19.958;2023-12-29T11:48:57;99024.77;;;8.61;89.59
41467;BME280;72625;53.700;19.958;2023-12-29T11:54:02;99023.20;;;8.56;89.40
41467;BME280;72625;53.700;19.958;2023-12-29T11:59:35;99013.21;;;8.66;89.52
41467;BME280;72625;53.700;19.958;2023-12-29T12:04:49;99006.10;;;8.80;88.43
41467;BME280;72625;53.700;19.958;2023-12-29T12:20:33;99001.19;;;8.93;87.73
41467;BME280;72625;53.700;19.958;2023-12-29T12:25:39;99011.09;;;8.88;86.76
41467;BME280;72625;53.700;19.958;2023-12-29T12:30:43;99025.27;;;8.83;87.37
41467;BME280;72625;53.700;19.958;2023-12-29T12:35:59;99024.45;;;8.75;87.46
41467;BME280;72625;53.700;19.958;2023-12-29T12:41:22;99018.88;;;8.69;87.04
41467;BME280;72625;53.700;19.958;2023-12-29T12:46:25;99025.09;;;8.63;87.36
41467;BME280;72625;53.700;19.958;2023-12-29T12:51:31;99030.52;;;8.60;87.44
41467;BME280;72625;53.700;19.958;2023-12-29T12:56:35;99031.66;;;8.55;87.79
41467;BME280;72625;53.700;19.958;2023-12-29T13:01:39;99033.39;;;8.54;88.11
41467;BME280;72625;53.700;19.958;2023-12-29T13:06:44;99034.61;;;8.52;88.30
41467;BME280;72625;53.700;19.958;2023-12-29T13:12:07;99027.75;;;8.51;88.15
41467;BME280;72625;53.700;19.958;2023-12-29T13:17:13;99022.09;;;8.52;88.72
41467;BME280;72625;53.700;19.958;2023-12-29T13:22:18;99022.13;;;8.52;88.53
41467;BME280;72625;53.700;19.958;2023-12-29T13:27:24;99023.58;;;8.54;88.79
41467;BME280;72625;53.700;19.958;2023-12-29T13:32:28;99017.73;;;8.55;88.35
41467;BME280;72625;53.700;19.958;2023-12-29T13:37:51;99005.45;;;8.54;88.23
41467;BME280;72625;53.700;19.958;2023-12-29T13:43:00;99010.52;;;8.55;88.01
41467;BME280;72625;53.700;19.958;2023-12-29T13:48:06;99007.64;;;8.53;88.30
41467;BME280;72625;53.700;19.958;2023-12-29T13:53:18;99020.18;;;8.54;88.20
41467;BME280;72625;53.700;19.958;2023-12-29T13:58:22;99031.71;;;8.59;88.06
41467;BME280;72625;53.700;19.958;2023-12-29T14:03:30;99041.85;;;8.62;88.47
41467;BME280;72625;53.700;19.958;2023-12-29T14:08:44;99027.05;;;8.61;88.27
41467;BME280;72625;53.700;19.958;2023-12-29T14:13:49;99030.80;;;8.62;88.34
41467;BME280;72625;53.700;19.958;2023-12-29T14:18:56;99025.84;;;8.61;88.12
41467;BME280;72625;53.700;19.958;2023-12-29T14:24:09;99031.29;;;8.60;88.02
41467;BME280;72625;53.700;19.958;2023-12-29T14:29:13;99038.52;;;8.65;87.60
41467;BME280;72625;53.700;19.958;2023-12-29T14:34:16;99034.54;;;8.71;87.51
41467;BME280;72625;53.700;19.958;2023-12-29T14:39:20;99034.44;;;8.68;87.95
41467;BME280;72625;53.700;19.958;2023-12-29T14:44:24;99042.60;;;8.63;87.94
41467;BME280;72625;53.700;19.958;2023-12-29T14:49:27;99057.09;;;8.60;88.02
41467;BME280;72625;53.700;19.958;2023-12-29T14:54:30;99061.32;;;8.63;87.99
41467;BME280;72625;53.700;19.958;2023-12-29T14:59:34;99061.28;;;8.68;88.22
41467;BME280;72625;53.700;19.958;2023-12-29T15:04:39;99076.66;;;8.71;88.27
41467;BME280;72625;53.700;19.958;2023-12-29T15:09:42;99067.30;;;8.73;87.93
41467;BME280;72625;53.700;19.958;2023-12-29T15:14:46;99052.45;;;8.75;88.21
41467;BME280;72625;53.700;19.958;2023-12-29T15:19:50;99046.98;;;8.76;88.43
41467;BME280;72625;53.700;19.958;2023-12-29T15:24:53;99040.80;;;8.73;88.70
41467;BME280;72625;53.700;19.958;2023-12-29T15:29:56;99032.28;;;8.64;88.85
41467;BME280;72625;53.700;19.958;2023-12-29T15:35:00;99028.59;;;8.53;88.87
41467;BME280;72625;53.700;19.958;2023-12-29T15:40:03;99026.00;;;8.43;89.45
41467;BME280;72625;53.700;19.958;2023-12-29T15:45:07;99023.58;;;8.37;89.67
41467;BME280;72625;53.700;19.958;2023-12-29T15:50:11;99018.00;;;8.32;89.68
41467;BME280;72625;53.700;19.958;2023-12-29T15:55:14;99018.59;;;8.24;89.94
41467;BME280;72625;53.700;19.958;2023-12-29T16:00:18;99022.43;;;8.19;90.06
41467;BME280;72625;53.700;19.958;2023-12-29T16:05:21;99025.75;;;8.13;90.14
41467;BME280;72625;53.700;19.958;2023-12-29T16:10:25;99024.77;;;8.10;90.18
41467;BME280;72625;53.700;19.958;2023-12-29T16:15:28;99029.12;;;8.11;89.87
41467;BME280;72625;53.700;19.958;2023-12-29T16:20:31;99030.55;;;8.18;89.80
41467;BME280;72625;53.700;19.958;2023-12-29T16:25:35;99039.33;;;8.25;88.92
41467;BME280;72625;53.700;19.958;2023-12-29T16:30:38;99031.48;;;8.33;88.49
41467;BME280;72625;53.700;19.958;2023-12-29T16:35:42;99032.36;;;8.41;88.01
41467;BME280;72625;53.700;19.958;2023-12-29T16:40:45;99040.55;;;8.48;88.40
41467;BME280;72625;53.700;19.958;2023-12-29T16:45:49;99038.88;;;8.47;88.25
41467;BME280;72625;53.700;19.958;2023-12-29T16:50:53;99030.14;;;8.43;88.94
41467;BME280;72625;53.700;19.958;2023-12-29T16:55:56;99030.32;;;8.39;89.33
41467;BME280;72625;53.700;19.958;2023-12-29T17:01:00;99032.21;;;8.36;89.93
41467;BME280;72625;53.700;19.958;2023-12-29T17:06:04;99040.53;;;8.28;90.52
41467;BME280;72625;53.700;19.958;2023-12-29T17:11:08;99041.23;;;8.22;91.63
41467;BME280;72625;53.700;19.958;2023-12-29T17:16:14;99030.69;;;8.06;93.03
41467;BME280;72625;53.700;19.958;2023-12-29T17:21:19;99032.67;;;7.97;94.61
41467;BME280;72625;53.700;19.958;2023-12-29T17:26:22;99040.75;;;7.93;94.60
41467;BME280;72625;53.700;19.958;2023-12-29T17:31:26;99040.73;;;7.90;94.42
41467;BME280;72625;53.700;19.958;2023-12-29T17:36:29;99047.23;;;7.85;95.09
41467;BME280;72625;53.700;19.958;2023-12-29T17:41:32;99051.63;;;7.86;95.38
41467;BME280;72625;53.700;19.958;2023-12-29T17:46:35;99058.84;;;7.88;95.15
41467;BME280;72625;53.700;19.958;2023-12-29T17:51:39;99050.55;;;7.90;95.20
41467;BME280;72625;53.700;19.958;2023-12-29T17:56:42;99059.33;;;7.88;94.93
41467;BME280;72625;53.700;19.958;2023-12-29T18:01:49;99051.35;;;7.87;94.70
41467;BME280;72625;53.700;19.958;2023-12-29T18:06:53;99034.10;;;7.81;94.25
41467;BME280;72625;53.700;19.958;2023-12-29T18:12:08;99025.56;;;7.72;94.00
41467;BME280;72625;53.700;19.958;2023-12-29T18:17:14;99019.79;;;7.64;92.81
41467;BME280;72625;53.700;19.958;2023-12-29T18:22:18;99037.83;;;7.58;92.49
41467;BME280;72625;53.700;19.958;2023-12-29T18:27:21;99041.80;;;7.50;92.30
41467;BME280;72625;53.700;19.958;2023-12-29T18:32:25;99038.42;;;7.40;92.25
41467;BME280;72625;53.700;19.958;2023-12-29T18:37:29;99038.11;;;7.34;92.27
41467;BME280;72625;53.700;19.958;2023-12-29T18:42:33;99032.58;;;7.26;92.33
41467;BME280;72625;53.700;19.958;2023-12-29T18:47:37;99031.01;;;7.17;92.48
41467;BME280;72625;53.700;19.958;2023-12-29T18:52:42;99039.33;;;7.07;92.70
41467;BME280;72625;53.700;19.958;2023-12-29T18:57:47;99041.89;;;6.94;93.69
41467;BME280;72625;53.700;19.958;2023-12-29T19:02:50;99055.98;;;6.82;94.44
41467;BME280;72625;53.700;19.958;2023-12-29T19:07:55;99044.95;;;6.74;95.15
41467;BME280;72625;53.700;19.958;2023-12-29T19:12:59;99035.61;;;6.66;95.09
41467;BME280;72625;53.700;19.958;2023-12-29T19:18:03;99045.66;;;6.64;95.63
41467;BME280;72625;53.700;19.958;2023-12-29T19:23:10;99040.10;;;6.59;96.02
41467;BME280;72625;53.700;19.958;2023-12-29T19:28:14;99043.04;;;6.55;96.11
41467;BME280;72625;53.700;19.958;2023-12-29T19:33:18;99041.08;;;6.50;96.81
41467;BME280;72625;53.700;19.958;2023-12-29T19:38:22;99049.34;;;6.48;96.98
41467;BME280;72625;53.700;19.958;2023-12-29T19:43:26;99060.17;;;6.43;97.09
41467;BME280;72625;53.700;19.958;2023-12-29T19:48:30;99039.14;;;6.40;96.64
41467;BME280;72625;53.700;19.958;2023-12-29T19:53:33;99005.98;;;6.42;96.23
41467;BME280;72625;53.700;19.958;2023-12-29T19:58:37;99009.13;;;6.47;96.35
41467;BME280;72625;53.700;19.958;2023-12-29T20:03:41;99018.02;;;6.44;97.13
41467;BME280;72625;53.700;19.958;2023-12-29T20:08:45;99029.70;;;6.42;97.96
41467;BME280;72625;53.700;19.958;2023-12-29T20:13:49;99032.42;;;6.43;98.29
41467;BME280;72625;53.700;19.958;2023-12-29T20:18:54;99040.36;;;6.42;99.22
41467;BME280;72625;53.700;19.958;2023-12-29T20:23:58;99043.73;;;6.42;99.21
41467;BME280;72625;53.700;19.958;2023-12-29T20:29:02;99046.41;;;6.39;98.89
41467;BME280;72625;53.700;19.958;2023-12-29T20:34:08;99047.45;;;6.33;99.03
41467;BME280;72625;53.700;19.958;2023-12-29T20:39:12;99038.81;;;6.31;99.12
41467;BME280;72625;53.700;19.958;2023-12-29T20:44:16;99034.79;;;6.31;99.52
41467;BME280;72625;53.700;19.958;2023-12-29T20:49:20;99037.55;;;6.33;99.90
41467;BME280;72625;53.700;19.958;2023-12-29T20:54:23;99048.15;;;6.37;99.79
41467;BME280;72625;53.700;19.958;2023-12-29T20:59:26;99056.68;;;6.41;99.93
41467;BME280;72625;53.700;19.958;2023-12-29T21:04:31;99041.96;;;6.43;99.83
41467;BME280;72625;53.700;19.958;2023-12-29T21:09:34;99044.30;;;6.40;99.42
41467;BME280;72625;53.700;19.958;2023-12-29T21:14:38;99039.41;;;6.36;99.87
41467;BME280;72625;53.700;19.958;2023-12-29T21:19:41;99041.29;;;6.33;99.97
41467;BME280;72625;53.700;19.958;2023-12-29T21:24:47;99048.36;;;6.33;99.93
41467;BME280;72625;53.700;19.958;2023-12-29T21:29:50;99060.58;;;6.33;99.86
41467;BME280;72625;53.700;19.958;2023-12-29T21:34:57;99058.20;;;6.31;99.77
41467;BME280;72625;53.700;19.958;2023-12-29T21:40:02;99050.33;;;6.32;99.90
41467;BME280;72625;53.700;19.958;2023-12-29T21:45:06;99051.66;;;6.38;99.99
41467;BME280;72625;53.700;19.958;2023-12-29T21:50:18;99047.89;;;6.45;100.00
41467;BME280;72625;53.700;19.958;2023-12-29T21:55:21;99048.77;;;6.56;100.00
41467;BME280;72625;53.700;19.958;2023-12-29T22:00:26;99050.64;;;6.66;99.95
41467;BME280;72625;53.700;19.958;2023-12-29T22:05:29;99044.33;;;6.73;100.00
41467;BME280;72625;53.700;19.958;2023-12-29T22:10:33;99038.23;;;6.78;100.00
41467;BME280;72625;53.700;19.958;2023-12-29T22:15:36;99041.16;;;6.76;100.00
41467;BME280;72625;53.700;19.958;2023-12-29T22:20:40;99038.02;;;6.71;100.00
41467;BME280;72625;53.700;19.958;2023-12-29T22:25:46;99034.23;;;6.69;100.00
41467;BME280;72625;53.700;19.958;2023-12-29T22:30:50;99037.59;;;6.72;100.00
41467;BME280;72625;53.700;19.958;2023-12-29T22:35:54;99018.39;;;6.75;100.00
41467;BME280;72625;53.700;19.958;2023-12-29T22:40:57;99030.25;;;6.78;100.00
41467;BME280;72625;53.700;19.958;2023-12-29T22:46:01;99013.09;;;6.77;100.00
41467;BME280;72625;53.700;19.958;2023-12-29T22:51:05;99020.44;;;6.80;100.00
41467;BME280;72625;53.700;19.958;2023-12-29T22:56:08;99015.02;;;6.79;100.00
41467;BME280;72625;53.700;19.958;2023-12-29T23:01:11;99015.65;;;6.75;100.00
41467;BME280;72625;53.700;19.958;2023-12-29T23:06:15;99000.69;;;6.71;100.00
41467;BME280;72625;53.700;19.958;2023-12-29T23:11:18;98997.90;;;6.68;100.00
41467;BME280;72625;53.700;19.958;2023-12-29T23:16:22;99007.45;;;6.68;100.00
41467;BME280;72625;53.700;19.958;2023-12-29T23:21:25;99006.98;;;6.68;100.00
41467;BME280;72625;53.700;19.958;2023-12-29T23:26:29;98994.35;;;6.69;100.00
41467;BME280;72625;53.700;19.958;2023-12-29T23:31:32;98981.92;;;6.72;100.00
41467;BME280;72625;53.700;19.958;2023-12-29T23:36:36;98986.16;;;6.73;100.00
41467;BME280;72625;53.700;19.958;2023-12-29T23:41:39;98983.09;;;6.74;100.00
41467;BME280;72625;53.700;19.958;2023-12-29T23:46:43;98979.27;;;6.76;100.00
41467;BME280;72625;53.700;19.958;2023-12-29T23:51:46;98979.89;;;6.82;100.00
41467;BME280;72625;53.700;19.958;2023-12-29T23:56:50;98980.30;;;6.93;100.00
